sensor_id;sensor_type;location;lat;lon;timestamp;P1;durP1;ratioP1;P2;durP2;ratioP2
37131;SDS011;23035;50.032;21.978;2023-11-21T00:02:34;8.18;;;6.00;;
37131;SDS011;23035;50.032;21.978;2023-11-21T00:07:39;7.15;;;5.70;;
37131;SDS011;23035;50.032;21.978;2023-11-21T00:12:44;7.63;;;5.60;;
37131;SDS011;23035;50.032;21.978;2023-11-21T00:17:52;7.97;;;6.30;;
37131;SDS011;23035;50.032;21.978;2023-11-21T00:22:57;9.10;;;6.43;;
37131;SDS011;23035;50.032;21.978;2023-11-21T00:28:02;7.53;;;5.97;;
37131;SDS011;23035;50.032;21.978;2023-11-21T00:33:08;7.13;;;6.07;;
37131;SDS011;23035;50.032;21.978;2023-11-21T00:38:13;7.53;;;6.60;;
37131;SDS011;23035;50.032;21.978;2023-11-21T00:43:18;6.80;;;6.20;;
37131;SDS011;23035;50.032;21.978;2023-11-21T00:48:24;7.22;;;6.53;;
37131;SDS011;23035;50.032;21.978;2023-11-21T00:58:33;7.03;;;6.32;;
37131;SDS011;23035;50.032;21.978;2023-11-21T01:03:39;6.00;;;5.50;;
37131;SDS011;23035;50.032;21.978;2023-11-21T01:08:44;6.85;;;6.20;;
37131;SDS011;23035;50.032;21.978;2023-11-21T01:13:49;8.67;;;7.00;;
37131;SDS011;23035;50.032;21.978;2023-11-21T01:18:55;8.13;;;6.20;;
37131;SDS011;23035;50.032;21.978;2023-11-21T01:23:59;7.07;;;6.38;;
37131;SDS011;23035;50.032;21.978;2023-11-21T01:29:05;6.57;;;5.88;;
37131;SDS011;23035;50.032;21.978;2023-11-21T01:34:11;6.35;;;5.70;;
37131;SDS011;23035;50.032;21.978;2023-11-21T01:39:16;6.68;;;6.07;;
37131;SDS011;23035;50.032;21.978;2023-11-21T01:44:26;6.60;;;5.90;;
37131;SDS011;23035;50.032;21.978;2023-11-21T01:49:34;5.60;;;5.10;;
37131;SDS011;23035;50.032;21.978;2023-11-21T01:54:39;7.55;;;5.72;;
37131;SDS011;23035;50.032;21.978;2023-11-21T02:04:52;5.67;;;5.17;;
37131;SDS011;23035;50.032;21.978;2023-11-21T02:09:57;5.63;;;4.88;;
37131;SDS011;23035;50.032;21.978;2023-11-21T02:15:03;7.25;;;5.30;;
37131;SDS011;23035;50.032;21.978;2023-11-21T02:20:13;5.93;;;5.32;;
37131;SDS011;23035;50.032;21.978;2023-11-21T02:25:19;8.38;;;5.95;;
37131;SDS011;23035;50.032;21.978;2023-11-21T02:30:24;8.50;;;5.60;;
37131;SDS011;23035;50.032;21.978;2023-11-21T02:35:30;8.18;;;5.38;;
37131;SDS011;23035;50.032;21.978;2023-11-21T02:40:36;6.40;;;5.28;;
37131;SDS011;23035;50.032;21.978;2023-11-21T02:45:41;6.57;;;5.88;;
37131;SDS011;23035;50.032;21.978;2023-11-21T02:50:46;6.22;;;5.63;;
37131;SDS011;23035;50.032;21.978;2023-11-21T02:55:52;5.75;;;5.25;;
37131;SDS011;23035;50.032;21.978;2023-11-21T03:00:56;5.97;;;5.38;;
37131;SDS011;23035;50.032;21.978;2023-11-21T03:06:01;5.63;;;5.13;;
37131;SDS011;23035;50.032;21.978;2023-11-21T03:11:08;5.80;;;5.30;;
37131;SDS011;23035;50.032;21.978;2023-11-21T03:16:14;6.13;;;5.53;;
37131;SDS011;23035;50.032;21.978;2023-11-21T03:21:20;5.70;;;5.20;;
37131;SDS011;23035;50.032;21.978;2023-11-21T03:26:25;5.53;;;5.03;;
37131;SDS011;23035;50.032;21.978;2023-11-21T03:31:30;7.43;;;5.47;;
37131;SDS011;23035;50.032;21.978;2023-11-21T03:36:34;7.00;;;6.05;;
37131;SDS011;23035;50.032;21.978;2023-11-21T03:41:41;6.00;;;5.40;;
37131;SDS011;23035;50.032;21.978;2023-11-21T03:46:46;6.50;;;5.55;;
37131;SDS011;23035;50.032;21.978;2023-11-21T03:51:51;6.35;;;5.50;;
37131;SDS011;23035;50.032;21.978;2023-11-21T03:56:56;6.35;;;5.75;;
37131;SDS011;23035;50.032;21.978;2023-11-21T04:02:00;6.95;;;6.30;;
37131;SDS011;23035;50.032;21.978;2023-11-21T04:07:05;6.20;;;5.60;;
37131;SDS011;23035;50.032;21.978;2023-11-21T04:12:10;8.50;;;5.80;;
37131;SDS011;23035;50.032;21.978;2023-11-21T04:17:17;5.47;;;4.97;;
37131;SDS011;23035;50.032;21.978;2023-11-21T04:22:22;6.03;;;5.50;;
37131;SDS011;23035;50.032;21.978;2023-11-21T04:27:28;7.72;;;5.80;;
37131;SDS011;23035;50.032;21.978;2023-11-21T04:32:33;6.95;;;6.25;;
37131;SDS011;23035;50.032;21.978;2023-11-21T04:37:37;6.82;;;6.10;;
37131;SDS011;23035;50.032;21.978;2023-11-21T04:42:44;6.20;;;5.63;;
37131;SDS011;23035;50.032;21.978;2023-11-21T04:47:49;6.15;;;5.65;;
37131;SDS011;23035;50.032;21.978;2023-11-21T04:52:55;6.75;;;6.15;;
37131;SDS011;23035;50.032;21.978;2023-11-21T04:58:01;5.80;;;5.30;;
37131;SDS011;23035;50.032;21.978;2023-11-21T05:03:07;5.82;;;5.20;;
37131;SDS011;23035;50.032;21.978;2023-11-21T05:08:11;6.67;;;6.07;;
37131;SDS011;23035;50.032;21.978;2023-11-21T05:13:17;8.20;;;7.40;;
37131;SDS011;23035;50.032;21.978;2023-11-21T05:18:22;7.25;;;6.22;;
37131;SDS011;23035;50.032;21.978;2023-11-21T05:23:30;8.23;;;6.05;;
37131;SDS011;23035;50.032;21.978;2023-11-21T05:28:35;8.98;;;6.70;;
37131;SDS011;23035;50.032;21.978;2023-11-21T05:33:40;6.70;;;6.00;;
37131;SDS011;23035;50.032;21.978;2023-11-21T05:38:45;8.20;;;7.40;;
37131;SDS011;23035;50.032;21.978;2023-11-21T05:43:51;8.60;;;7.90;;
37131;SDS011;23035;50.032;21.978;2023-11-21T05:48:56;7.28;;;6.68;;
37131;SDS011;23035;50.032;21.978;2023-11-21T05:54:01;7.78;;;7.00;;
37131;SDS011;23035;50.032;21.978;2023-11-21T05:59:07;7.60;;;6.90;;
37131;SDS011;23035;50.032;21.978;2023-11-21T06:04:11;9.68;;;7.15;;
37131;SDS011;23035;50.032;21.978;2023-11-21T06:14:23;9.07;;;8.10;;
37131;SDS011;23035;50.032;21.978;2023-11-21T06:19:27;9.18;;;8.18;;
37131;SDS011;23035;50.032;21.978;2023-11-21T06:24:32;11.38;;;9.00;;
37131;SDS011;23035;50.032;21.978;2023-11-21T06:29:38;10.52;;;8.50;;
37131;SDS011;23035;50.032;21.978;2023-11-21T06:34:45;8.70;;;7.82;;
37131;SDS011;23035;50.032;21.978;2023-11-21T06:39:49;8.52;;;7.72;;
37131;SDS011;23035;50.032;21.978;2023-11-21T06:44:57;14.35;;;8.27;;
37131;SDS011;23035;50.032;21.978;2023-11-21T06:50:02;10.57;;;8.20;;
37131;SDS011;23035;50.032;21.978;2023-11-21T06:55:07;10.63;;;9.52;;
37131;SDS011;23035;50.032;21.978;2023-11-21T07:00:14;9.10;;;8.20;;
37131;SDS011;23035;50.032;21.978;2023-11-21T07:05:22;9.13;;;8.23;;
37131;SDS011;23035;50.032;21.978;2023-11-21T07:10:26;9.20;;;7.80;;
37131;SDS011;23035;50.032;21.978;2023-11-21T07:15:32;9.02;;;8.18;;
37131;SDS011;23035;50.032;21.978;2023-11-21T07:20:37;12.63;;;7.63;;
37131;SDS011;23035;50.032;21.978;2023-11-21T07:25:41;8.25;;;7.45;;
37131;SDS011;23035;50.032;21.978;2023-11-21T07:30:48;9.35;;;8.45;;
37131;SDS011;23035;50.032;21.978;2023-11-21T07:35:53;9.23;;;8.32;;
37131;SDS011;23035;50.032;21.978;2023-11-21T07:40:57;14.70;;;9.38;;
37131;SDS011;23035;50.032;21.978;2023-11-21T07:46:05;13.05;;;9.25;;
37131;SDS011;23035;50.032;21.978;2023-11-21T07:51:10;9.60;;;8.63;;
37131;SDS011;23035;50.032;21.978;2023-11-21T07:56:16;8.75;;;7.93;;
37131;SDS011;23035;50.032;21.978;2023-11-21T08:01:22;10.43;;;8.77;;
37131;SDS011;23035;50.032;21.978;2023-11-21T08:06:27;14.90;;;10.20;;
37131;SDS011;23035;50.032;21.978;2023-11-21T08:11:32;16.43;;;9.73;;
37131;SDS011;23035;50.032;21.978;2023-11-21T08:28:49;13.77;;;8.60;;
37131;SDS011;23035;50.032;21.978;2023-11-21T08:34:03;25.38;;;9.90;;
37131;SDS011;23035;50.032;21.978;2023-11-21T08:39:25;10.13;;;9.00;;
37131;SDS011;23035;50.032;21.978;2023-11-21T08:49:37;13.13;;;9.15;;
37131;SDS011;23035;50.032;21.978;2023-11-21T08:54:43;10.60;;;9.18;;
37131;SDS011;23035;50.032;21.978;2023-11-21T08:59:58;10.52;;;9.23;;
37131;SDS011;23035;50.032;21.978;2023-11-21T09:12:08;12.20;;;10.20;;
37131;SDS011;23035;50.032;21.978;2023-11-21T09:17:15;17.95;;;11.88;;
37131;SDS011;23035;50.032;21.978;2023-11-21T09:22:21;11.32;;;10.20;;
37131;SDS011;23035;50.032;21.978;2023-11-21T09:27:28;16.17;;;11.18;;
37131;SDS011;23035;50.032;21.978;2023-11-21T09:32:32;10.68;;;9.07;;
37131;SDS011;23035;50.032;21.978;2023-11-21T09:37:39;10.73;;;9.63;;
37131;SDS011;23035;50.032;21.978;2023-11-21T09:42:47;10.80;;;9.45;;
37131;SDS011;23035;50.032;21.978;2023-11-21T09:47:57;10.43;;;9.13;;
37131;SDS011;23035;50.032;21.978;2023-11-21T09:53:06;11.35;;;10.25;;
37131;SDS011;23035;50.032;21.978;2023-11-21T09:58:18;13.80;;;11.63;;
37131;SDS011;23035;50.032;21.978;2023-11-21T10:03:24;15.95;;;11.45;;
37131;SDS011;23035;50.032;21.978;2023-11-21T10:08:31;9.65;;;8.75;;
37131;SDS011;23035;50.032;21.978;2023-11-21T10:13:52;8.13;;;7.38;;
37131;SDS011;23035;50.032;21.978;2023-11-21T10:19:00;7.65;;;7.00;;
37131;SDS011;23035;50.032;21.978;2023-11-21T10:24:14;7.80;;;7.20;;
37131;SDS011;23035;50.032;21.978;2023-11-21T10:29:21;7.85;;;7.22;;
37131;SDS011;23035;50.032;21.978;2023-11-21T10:34:25;7.80;;;7.20;;
37131;SDS011;23035;50.032;21.978;2023-11-21T10:39:32;6.07;;;5.67;;
37131;SDS011;23035;50.032;21.978;2023-11-21T10:44:37;6.50;;;6.00;;
37131;SDS011;23035;50.032;21.978;2023-11-21T10:49:41;5.90;;;5.30;;
37131;SDS011;23035;50.032;21.978;2023-11-21T10:54:48;6.00;;;4.82;;
37131;SDS011;23035;50.032;21.978;2023-11-21T11:04:58;4.90;;;4.50;;
37131;SDS011;23035;50.032;21.978;2023-11-21T11:10:06;6.00;;;5.25;;
37131;SDS011;23035;50.032;21.978;2023-11-21T11:15:17;6.68;;;5.70;;
37131;SDS011;23035;50.032;21.978;2023-11-21T11:20:24;10.70;;;5.90;;
37131;SDS011;23035;50.032;21.978;2023-11-21T11:25:38;8.60;;;6.07;;
37131;SDS011;23035;50.032;21.978;2023-11-21T11:31:00;9.13;;;6.20;;
37131;SDS011;23035;50.032;21.978;2023-11-21T11:36:40;7.60;;;6.80;;
37131;SDS011;23035;50.032;21.978;2023-11-21T11:42:05;6.75;;;6.05;;
37131;SDS011;23035;50.032;21.978;2023-11-21T11:47:15;6.95;;;6.25;;
37131;SDS011;23035;50.032;21.978;2023-11-21T11:52:34;7.10;;;6.40;;
37131;SDS011;23035;50.032;21.978;2023-11-21T11:57:47;7.20;;;6.45;;
37131;SDS011;23035;50.032;21.978;2023-11-21T12:02:56;7.00;;;6.25;;
37131;SDS011;23035;50.032;21.978;2023-11-21T12:08:07;7.82;;;6.28;;
37131;SDS011;23035;50.032;21.978;2023-11-21T12:13:14;8.48;;;6.55;;
37131;SDS011;23035;50.032;21.978;2023-11-21T12:18:19;8.30;;;7.25;;
37131;SDS011;23035;50.032;21.978;2023-11-21T12:23:28;8.40;;;6.72;;
37131;SDS011;23035;50.032;21.978;2023-11-21T12:28:43;9.80;;;7.35;;
37131;SDS011;23035;50.032;21.978;2023-11-21T12:33:59;8.40;;;6.95;;
37131;SDS011;23035;50.032;21.978;2023-11-21T12:39:06;8.40;;;6.95;;
37131;SDS011;23035;50.032;21.978;2023-11-21T12:44:14;11.07;;;8.02;;
37131;SDS011;23035;50.032;21.978;2023-11-21T12:49:21;10.75;;;8.65;;
37131;SDS011;23035;50.032;21.978;2023-11-21T12:54:26;12.37;;;8.00;;
37131;SDS011;23035;50.032;21.978;2023-11-21T13:04:38;22.03;;;12.47;;
37131;SDS011;23035;50.032;21.978;2023-11-21T13:09:46;24.90;;;14.13;;
37131;SDS011;23035;50.032;21.978;2023-11-21T13:14:58;38.00;;;13.93;;
37131;SDS011;23035;50.032;21.978;2023-11-21T13:20:09;34.92;;;13.98;;
37131;SDS011;23035;50.032;21.978;2023-11-21T13:25:18;21.85;;;13.48;;
37131;SDS011;23035;50.032;21.978;2023-11-21T13:30:24;76.38;;;17.45;;
37131;SDS011;23035;50.032;21.978;2023-11-21T13:35:30;31.83;;;14.15;;
37131;SDS011;23035;50.032;21.978;2023-11-21T13:40:40;21.77;;;13.68;;
37131;SDS011;23035;50.032;21.978;2023-11-21T13:45:49;34.75;;;14.50;;
37131;SDS011;23035;50.032;21.978;2023-11-21T13:51:01;29.92;;;14.20;;
37131;SDS011;23035;50.032;21.978;2023-11-21T13:56:15;29.52;;;16.27;;
37131;SDS011;23035;50.032;21.978;2023-11-21T14:01:27;26.88;;;16.15;;
37131;SDS011;23035;50.032;21.978;2023-11-21T14:06:45;24.40;;;14.15;;
37131;SDS011;23035;50.032;21.978;2023-11-21T14:11:52;24.83;;;15.00;;
37131;SDS011;23035;50.032;21.978;2023-11-21T14:17:01;23.40;;;14.77;;
37131;SDS011;23035;50.032;21.978;2023-11-21T14:22:22;39.17;;;17.02;;
37131;SDS011;23035;50.032;21.978;2023-11-21T14:27:28;29.50;;;15.90;;
37131;SDS011;23035;50.032;21.978;2023-11-21T14:32:39;30.05;;;16.80;;
37131;SDS011;23035;50.032;21.978;2023-11-21T14:37:45;43.10;;;20.27;;
37131;SDS011;23035;50.032;21.978;2023-11-21T14:43:03;33.45;;;18.77;;
37131;SDS011;23035;50.032;21.978;2023-11-21T14:48:14;35.83;;;18.90;;
37131;SDS011;23035;50.032;21.978;2023-11-21T14:53:31;31.67;;;18.10;;
37131;SDS011;23035;50.032;21.978;2023-11-21T14:58:57;30.63;;;18.38;;
37131;SDS011;23035;50.032;21.978;2023-11-21T15:04:16;28.23;;;17.30;;
37131;SDS011;23035;50.032;21.978;2023-11-21T15:09:37;28.63;;;18.20;;
37131;SDS011;23035;50.032;21.978;2023-11-21T15:14:46;30.75;;;18.25;;
37131;SDS011;23035;50.032;21.978;2023-11-21T15:19:56;37.25;;;20.50;;
37131;SDS011;23035;50.032;21.978;2023-11-21T15:25:01;31.40;;;19.25;;
37131;SDS011;23035;50.032;21.978;2023-11-21T15:30:10;31.77;;;18.73;;
37131;SDS011;23035;50.032;21.978;2023-11-21T15:35:29;28.92;;;16.80;;
37131;SDS011;23035;50.032;21.978;2023-11-21T15:40:35;32.75;;;20.25;;
37131;SDS011;23035;50.032;21.978;2023-11-21T15:45:47;30.43;;;17.33;;
37131;SDS011;23035;50.032;21.978;2023-11-21T15:50:54;32.60;;;17.88;;
37131;SDS011;23035;50.032;21.978;2023-11-21T15:56:00;32.83;;;18.92;;
37131;SDS011;23035;50.032;21.978;2023-11-21T16:01:11;39.45;;;20.05;;
37131;SDS011;23035;50.032;21.978;2023-11-21T16:06:17;35.97;;;18.87;;
37131;SDS011;23035;50.032;21.978;2023-11-21T16:11:22;41.85;;;21.35;;
37131;SDS011;23035;50.032;21.978;2023-11-21T16:16:26;37.70;;;20.00;;
37131;SDS011;23035;50.032;21.978;2023-11-21T16:21:32;32.70;;;17.48;;
37131;SDS011;23035;50.032;21.978;2023-11-21T16:26:37;32.55;;;18.27;;
37131;SDS011;23035;50.032;21.978;2023-11-21T16:31:46;26.60;;;15.98;;
37131;SDS011;23035;50.032;21.978;2023-11-21T16:36:55;36.00;;;17.70;;
37131;SDS011;23035;50.032;21.978;2023-11-21T16:41:59;34.50;;;19.67;;
37131;SDS011;23035;50.032;21.978;2023-11-21T16:47:04;41.50;;;21.25;;
37131;SDS011;23035;50.032;21.978;2023-11-21T16:52:11;44.78;;;22.95;;
37131;SDS011;23035;50.032;21.978;2023-11-21T16:57:16;55.28;;;24.70;;
37131;SDS011;23035;50.032;21.978;2023-11-21T17:02:21;34.70;;;21.10;;
37131;SDS011;23035;50.032;21.978;2023-11-21T17:07:28;33.95;;;17.98;;
37131;SDS011;23035;50.032;21.978;2023-11-21T17:12:33;36.80;;;19.27;;
37131;SDS011;23035;50.032;21.978;2023-11-21T17:17:38;52.03;;;18.77;;
37131;SDS011;23035;50.032;21.978;2023-11-21T17:22:45;30.83;;;16.70;;
37131;SDS011;23035;50.032;21.978;2023-11-21T17:27:51;47.60;;;18.98;;
37131;SDS011;23035;50.032;21.978;2023-11-21T17:32:56;29.35;;;17.10;;
37131;SDS011;23035;50.032;21.978;2023-11-21T17:38:02;58.70;;;19.90;;
37131;SDS011;23035;50.032;21.978;2023-11-21T17:43:08;46.25;;;20.27;;
37131;SDS011;23035;50.032;21.978;2023-11-21T17:48:13;53.20;;;22.10;;
37131;SDS011;23035;50.032;21.978;2023-11-21T17:53:19;69.70;;;26.25;;
37131;SDS011;23035;50.032;21.978;2023-11-21T17:58:24;56.72;;;24.52;;
37131;SDS011;23035;50.032;21.978;2023-11-21T18:03:29;59.58;;;25.33;;
37131;SDS011;23035;50.032;21.978;2023-11-21T18:08:36;52.22;;;25.15;;
37131;SDS011;23035;50.032;21.978;2023-11-21T18:13:43;45.13;;;22.25;;
37131;SDS011;23035;50.032;21.978;2023-11-21T18:18:52;54.47;;;25.08;;
37131;SDS011;23035;50.032;21.978;2023-11-21T18:23:58;55.13;;;23.63;;
37131;SDS011;23035;50.032;21.978;2023-11-21T18:29:17;58.22;;;23.58;;
37131;SDS011;23035;50.032;21.978;2023-11-21T18:34:36;70.80;;;25.20;;
37131;SDS011;23035;50.032;21.978;2023-11-21T18:39:43;60.03;;;26.80;;
37131;SDS011;23035;50.032;21.978;2023-11-21T18:44:51;75.40;;;26.25;;
37131;SDS011;23035;50.032;21.978;2023-11-21T18:50:03;82.85;;;26.70;;
37131;SDS011;23035;50.032;21.978;2023-11-21T18:55:13;51.08;;;25.25;;
37131;SDS011;23035;50.032;21.978;2023-11-21T19:00:18;61.70;;;25.90;;
37131;SDS011;23035;50.032;21.978;2023-11-21T19:05:23;63.60;;;25.30;;
37131;SDS011;23035;50.032;21.978;2023-11-21T19:10:29;45.13;;;23.93;;
37131;SDS011;23035;50.032;21.978;2023-11-21T19:15:35;48.65;;;23.60;;
37131;SDS011;23035;50.032;21.978;2023-11-21T19:20:47;43.50;;;22.77;;
37131;SDS011;23035;50.032;21.978;2023-11-21T19:25:56;63.22;;;25.67;;
37131;SDS011;23035;50.032;21.978;2023-11-21T19:31:00;62.75;;;25.05;;
37131;SDS011;23035;50.032;21.978;2023-11-21T19:36:06;60.13;;;23.80;;
37131;SDS011;23035;50.032;21.978;2023-11-21T19:41:21;45.05;;;21.35;;
37131;SDS011;23035;50.032;21.978;2023-11-21T19:46:30;37.65;;;19.02;;
37131;SDS011;23035;50.032;21.978;2023-11-21T19:52:17;44.17;;;19.10;;
37131;SDS011;23035;50.032;21.978;2023-11-21T19:57:23;53.30;;;21.60;;
37131;SDS011;23035;50.032;21.978;2023-11-21T20:02:27;57.33;;;21.45;;
37131;SDS011;23035;50.032;21.978;2023-11-21T20:07:32;63.90;;;22.52;;
37131;SDS011;23035;50.032;21.978;2023-11-21T20:12:38;66.07;;;22.23;;
37131;SDS011;23035;50.032;21.978;2023-11-21T20:17:43;70.38;;;25.00;;
37131;SDS011;23035;50.032;21.978;2023-11-21T20:22:52;54.05;;;21.45;;
37131;SDS011;23035;50.032;21.978;2023-11-21T20:27:59;44.65;;;20.58;;
37131;SDS011;23035;50.032;21.978;2023-11-21T20:33:04;36.33;;;18.83;;
37131;SDS011;23035;50.032;21.978;2023-11-21T20:38:09;40.50;;;20.15;;
37131;SDS011;23035;50.032;21.978;2023-11-21T20:43:16;37.90;;;18.45;;
37131;SDS011;23035;50.032;21.978;2023-11-21T20:53:26;42.33;;;18.83;;
37131;SDS011;23035;50.032;21.978;2023-11-21T20:58:32;37.53;;;17.95;;
37131;SDS011;23035;50.032;21.978;2023-11-21T21:03:37;34.78;;;18.02;;
37131;SDS011;23035;50.032;21.978;2023-11-21T21:08:42;30.48;;;16.23;;
37131;SDS011;23035;50.032;21.978;2023-11-21T21:13:48;31.47;;;16.90;;
37131;SDS011;23035;50.032;21.978;2023-11-21T21:18:56;33.22;;;17.40;;
37131;SDS011;23035;50.032;21.978;2023-11-21T21:24:02;27.55;;;14.68;;
37131;SDS011;23035;50.032;21.978;2023-11-21T21:29:08;27.30;;;13.83;;
37131;SDS011;23035;50.032;21.978;2023-11-21T21:34:13;29.70;;;15.75;;
37131;SDS011;23035;50.032;21.978;2023-11-21T21:39:19;24.27;;;13.45;;
37131;SDS011;23035;50.032;21.978;2023-11-21T21:44:25;26.07;;;13.63;;
37131;SDS011;23035;50.032;21.978;2023-11-21T21:49:30;20.58;;;11.85;;
37131;SDS011;23035;50.032;21.978;2023-11-21T21:54:38;28.33;;;14.68;;
37131;SDS011;23035;50.032;21.978;2023-11-21T21:59:44;29.75;;;15.10;;
37131;SDS011;23035;50.032;21.978;2023-11-21T22:04:51;28.98;;;14.35;;
37131;SDS011;23035;50.032;21.978;2023-11-21T22:09:56;24.25;;;13.20;;
37131;SDS011;23035;50.032;21.978;2023-11-21T22:15:04;24.73;;;13.02;;
37131;SDS011;23035;50.032;21.978;2023-11-21T22:20:10;19.58;;;10.98;;
37131;SDS011;23035;50.032;21.978;2023-11-21T22:25:15;21.80;;;10.25;;
37131;SDS011;23035;50.032;21.978;2023-11-21T22:30:21;17.83;;;9.93;;
37131;SDS011;23035;50.032;21.978;2023-11-21T22:35:27;11.80;;;7.20;;
37131;SDS011;23035;50.032;21.978;2023-11-21T22:40:36;11.00;;;6.10;;
37131;SDS011;23035;50.032;21.978;2023-11-21T22:51:18;7.57;;;5.53;;
37131;SDS011;23035;50.032;21.978;2023-11-21T22:56:26;9.23;;;5.75;;
37131;SDS011;23035;50.032;21.978;2023-11-21T23:01:36;9.23;;;5.60;;
37131;SDS011;23035;50.032;21.978;2023-11-21T23:06:51;10.00;;;6.35;;
37131;SDS011;23035;50.032;21.978;2023-11-21T23:18:19;11.70;;;7.47;;
37131;SDS011;23035;50.032;21.978;2023-11-21T23:23:51;9.48;;;7.28;;
37131;SDS011;23035;50.032;21.978;2023-11-21T23:28:55;11.55;;;7.90;;
37131;SDS011;23035;50.032;21.978;2023-11-21T23:34:01;12.40;;;7.97;;
37131;SDS011;23035;50.032;21.978;2023-11-21T23:39:06;14.73;;;9.23;;
37131;SDS011;23035;50.032;21.978;2023-11-21T23:44:11;10.03;;;7.03;;
37131;SDS011;23035;50.032;21.978;2023-11-21T23:49:17;11.63;;;8.65;;
37131;SDS011;23035;50.032;21.978;2023-11-21T23:54:25;12.77;;;8.80;;
37131;SDS011;23035;50.032;21.978;2023-11-21T23:59:30;11.57;;;8.45;;
